Time;durP1;ratioP1;P1;durP2;ratioP2;P2;SDS_P1;SDS_P2;PMS_P1;PMS_P2;Temp;Humidity;BMP_temperature;BMP_pressure;BME280_temperature;BME280_humidity;BME280_pressure;Samples;Min_cycle;Max_cycle;Signal;HPM_P1;HPM_P2
2021/12/12 00:00:40;;;;;;;4.93;2.10;;;;;;;;;;4968534;28;20545;-59
2021/12/12 00:03:20;;;;;;;6.33;2.27;;;;;;;;;;4968294;28;20030;-60
2021/12/12 00:05:51;;;;;;;4.17;2.20;;;;;;;;;;4968306;28;20035;-59
2021/12/12 00:08:19;;;;;;;8.30;2.60;;;;;;;;;;4970112;28;20031;-59
2021/12/12 00:10:47;;;;;;;6.93;1.90;;;;;;;;;;4970561;28;20027;-59
2021/12/12 00:13:17;;;;;;;5.73;2.17;;;;;;;;;;4969250;28;20742;-59
2021/12/12 00:15:44;;;;;;;3.17;2.00;;;;;;;;;;4970291;28;20426;-59
2021/12/12 00:18:11;;;;;;;3.00;1.83;;;;;;;;;;4967603;28;20382;-59
2021/12/12 00:20:38;;;;;;;6.37;2.37;;;;;;;;;;4967840;28;20029;-59
2021/12/12 00:23:05;;;;;;;7.07;2.57;;;;;;;;;;4967587;28;20045;-58
2021/12/12 00:25:38;;;;;;;4.53;2.23;;;;;;;;;;4968173;28;20029;-59
2021/12/12 00:28:05;;;;;;;3.97;2.10;;;;;;;;;;4970544;28;20074;-58
2021/12/12 00:30:33;;;;;;;4.67;2.10;;;;;;;;;;4973247;28;20039;-58
2021/12/12 00:33:00;;;;;;;4.17;2.53;;;;;;;;;;4973169;28;20053;-59
2021/12/12 00:35:27;;;;;;;7.80;2.47;;;;;;;;;;4973223;28;20377;-59
2021/12/12 00:37:57;;;;;;;7.03;3.30;;;;;;;;;;4973041;28;20474;-60
2021/12/12 00:40:27;;;;;;;7.40;2.63;;;;;;;;;;4973662;28;20034;-59
2021/12/12 00:42:56;;;;;;;3.87;2.00;;;;;;;;;;4969156;28;20789;-59
2021/12/12 00:45:23;;;;;;;5.47;2.10;;;;;;;;;;4967004;28;20055;-59
2021/12/12 00:47:50;;;;;;;4.37;2.67;;;;;;;;;;4967745;28;20030;-59
2021/12/12 00:50:22;;;;;;;7.40;2.40;;;;;;;;;;4969998;28;20158;-58
2021/12/12 00:52:49;;;;;;;5.70;2.50;;;;;;;;;;4972222;28;20179;-58
2021/12/12 00:55:16;;;;;;;4.07;2.40;;;;;;;;;;4976467;28;20387;-58
2021/12/12 00:57:49;;;;;;;6.47;2.50;;;;;;;;;;4972259;28;20030;-59
2021/12/12 01:00:16;;;;;;;4.33;2.33;;;;;;;;;;4974536;28;20486;-58
2021/12/12 01:02:43;;;;;;;3.77;2.40;;;;;;;;;;4969336;28;20031;-59
2021/12/12 01:05:11;;;;;;;7.30;2.70;;;;;;;;;;4968838;28;20031;-59
2021/12/12 01:07:39;;;;;;;11.33;2.33;;;;;;;;;;4970513;28;20037;-59
2021/12/12 01:10:11;;;;;;;6.37;2.57;;;;;;;;;;4967603;28;20758;-59
2021/12/12 01:12:38;;;;;;;5.43;2.77;;;;;;;;;;4973225;28;20023;-58
2021/12/12 01:15:16;;;;;;;6.23;2.40;;;;;;;;;;4973309;28;20031;-59
2021/12/12 01:17:46;;;;;;;12.47;2.50;;;;;;;;;;4973694;28;20390;-58
2021/12/12 01:20:25;;;;;;;6.70;2.70;;;;;;;;;;4973409;28;20030;-59
2021/12/12 01:22:54;;;;;;;7.03;2.60;;;;;;;;;;4971420;28;20027;-58
2021/12/12 01:25:29;;;;;;;8.17;2.63;;;;;;;;;;4970590;28;20026;-59
2021/12/12 01:27:57;;;;;;;5.70;3.10;;;;;;;;;;4965500;28;20042;-60
2021/12/12 01:30:24;;;;;;;7.13;2.70;;;;;;;;;;4970527;28;20026;-59
2021/12/12 01:32:52;;;;;;;7.00;2.60;;;;;;;;;;4968898;28;20517;-58
2021/12/12 01:35:20;;;;;;;5.00;2.57;;;;;;;;;;4967936;28;20483;-59
2021/12/12 01:38:51;;;;;;;11.03;2.70;;;;;;;;;;4976003;28;20050;-59
2021/12/12 01:40:36;;;;;;;8.53;2.50;;;;;;;;;;4975578;28;20046;-59
2021/12/12 01:43:19;;;;;;;5.47;2.77;;;;;;;;;;4975826;28;20158;-59
2021/12/12 01:45:48;;;;;;;6.17;2.50;;;;;;;;;;4976092;28;20105;-59
2021/12/12 01:48:18;;;;;;;6.43;2.70;;;;;;;;;;4970598;28;20019;-59
2021/12/12 01:50:50;;;;;;;4.03;2.70;;;;;;;;;;4970824;28;20433;-58
2021/12/12 01:53:18;;;;;;;8.10;2.53;;;;;;;;;;4970707;28;20030;-59
2021/12/12 01:55:48;;;;;;;5.00;2.80;;;;;;;;;;4970786;28;20166;-58
2021/12/12 01:58:16;;;;;;;8.87;2.70;;;;;;;;;;4974136;28;20037;-59
2021/12/12 02:00:48;;;;;;;7.60;3.13;;;;;;;;;;4976103;28;20712;-59
2021/12/12 02:03:16;;;;;;;10.30;3.00;;;;;;;;;;4975628;28;20031;-59
2021/12/12 02:05:43;;;;;;;10.40;3.00;;;;;;;;;;4975589;28;20091;-59
2021/12/12 02:08:12;;;;;;;4.17;2.57;;;;;;;;;;4975780;28;20019;-59
2021/12/12 02:10:42;;;;;;;6.87;2.60;;;;;;;;;;4971295;28;20443;-59
2021/12/12 02:13:16;;;;;;;9.23;2.73;;;;;;;;;;4970424;28;20027;-59
2021/12/12 02:15:48;;;;;;;5.47;2.47;;;;;;;;;;4970432;28;20050;-60
2021/12/12 02:18:21;;;;;;;5.20;2.63;;;;;;;;;;4970457;28;20035;-58
2021/12/12 02:23:59;;;;;;;6.10;2.47;;;;;;;;;;4975694;28;20054;-58
2021/12/12 02:37:29;;;;;;;5.50;3.20;;;;;;;;;;4970008;28;19933;-59
2021/12/12 02:39:57;;;;;;;5.73;2.60;;;;;;;;;;4970013;28;20375;-59
2021/12/12 02:42:24;;;;;;;12.23;2.67;;;;;;;;;;4972508;28;20080;-58
2021/12/12 02:44:55;;;;;;;7.50;2.83;;;;;;;;;;4974741;28;20037;-58
2021/12/12 02:47:32;;;;;;;5.70;2.53;;;;;;;;;;4974622;28;20026;-59
2021/12/12 02:50:09;;;;;;;8.90;3.27;;;;;;;;;;4974388;28;20062;-58
2021/12/12 02:52:36;;;;;;;13.30;3.33;;;;;;;;;;4974906;28;20031;-59
2021/12/12 02:55:10;;;;;;;6.63;2.77;;;;;;;;;;4971110;28;20058;-59
2021/12/12 02:57:37;;;;;;;4.00;2.35;;;;;;;;;;4969713;28;20023;-59
2021/12/12 03:00:05;;;;;;;8.10;2.90;;;;;;;;;;4969116;28;20050;-58
2021/12/12 03:02:39;;;;;;;5.70;2.67;;;;;;;;;;4969653;28;20029;-58
2021/12/12 03:05:07;;;;;;;4.32;2.65;;;;;;;;;;4972783;28;20106;-58
2021/12/12 03:07:34;;;;;;;11.30;3.33;;;;;;;;;;4974135;28;20035;-59
2021/12/12 03:10:01;;;;;;;6.63;2.60;;;;;;;;;;4974563;28;20438;-58
2021/12/12 03:12:33;;;;;;;9.07;2.80;;;;;;;;;;4974493;28;20385;-58
2021/12/12 03:15:13;;;;;;;5.77;2.40;;;;;;;;;;4974424;28;20090;-58
2021/12/12 03:17:41;;;;;;;6.20;2.90;;;;;;;;;;4969737;28;20035;-60
2021/12/12 03:20:23;;;;;;;13.60;2.60;;;;;;;;;;4969471;28;20815;-58
2021/12/12 03:22:59;;;;;;;11.53;3.23;;;;;;;;;;4968884;28;20026;-58
2021/12/12 03:25:25;;;;;;;7.57;2.60;;;;;;;;;;4969248;28;20390;-58
2021/12/12 03:27:52;;;;;;;8.03;3.27;;;;;;;;;;4973650;28;20023;-58
2021/12/12 03:30:19;;;;;;;9.60;2.90;;;;;;;;;;4974266;28;20031;-58
2021/12/12 03:32:46;;;;;;;4.37;2.67;;;;;;;;;;4973719;28;20034;-58
2021/12/12 03:35:13;;;;;;;7.23;2.93;;;;;;;;;;4973614;28;20406;-58
2021/12/12 03:37:41;;;;;;;5.50;2.53;;;;;;;;;;4974013;28;20027;-58
2021/12/12 03:40:14;;;;;;;10.93;2.90;;;;;;;;;;4969116;28;20109;-58
2021/12/12 03:42:41;;;;;;;7.50;2.73;;;;;;;;;;4968772;28;20394;-58
2021/12/12 03:45:08;;;;;;;7.17;2.90;;;;;;;;;;4968831;28;20026;-58
2021/12/12 03:47:37;;;;;;;8.57;3.00;;;;;;;;;;4967206;28;20049;-58
2021/12/12 03:50:07;;;;;;;11.70;2.93;;;;;;;;;;4972329;28;20592;-58
2021/12/12 03:52:33;;;;;;;7.27;3.00;;;;;;;;;;4973903;28;20069;-58
2021/12/12 03:55:01;;;;;;;6.13;2.53;;;;;;;;;;4973707;28;20497;-58
2021/12/12 03:57:29;;;;;;;5.47;2.70;;;;;;;;;;4973335;28;20170;-58
2021/12/12 03:59:57;;;;;;;8.53;2.87;;;;;;;;;;4972095;28;20023;-58
2021/12/12 04:02:24;;;;;;;8.13;2.43;;;;;;;;;;4966404;28;20113;-58
2021/12/12 04:04:51;;;;;;;5.87;3.07;;;;;;;;;;4967454;28;20037;-59
2021/12/12 04:07:23;;;;;;;6.00;3.13;;;;;;;;;;4965357;28;20089;-58
2021/12/12 04:09:50;;;;;;;9.43;3.30;;;;;;;;;;4966986;28;20030;-58
2021/12/12 04:12:18;;;;;;;5.43;2.70;;;;;;;;;;4969233;28;20034;-58
2021/12/12 04:14:46;;;;;;;4.67;2.50;;;;;;;;;;4971190;28;20035;-58
2021/12/12 04:17:15;;;;;;;10.33;3.10;;;;;;;;;;4971184;28;20030;-58
2021/12/12 04:19:43;;;;;;;4.90;3.10;;;;;;;;;;4972893;28;20027;-58
2021/12/12 04:22:10;;;;;;;7.97;3.30;;;;;;;;;;4973064;28;20024;-58
2021/12/12 04:24:39;;;;;;;6.60;3.00;;;;;;;;;;4967697;28;20030;-57
2021/12/12 04:27:06;;;;;;;5.77;3.20;;;;;;;;;;4967628;28;20030;-59
2021/12/12 04:29:35;;;;;;;7.67;2.83;;;;;;;;;;4967870;28;20023;-58
2021/12/12 04:32:04;;;;;;;6.17;3.03;;;;;;;;;;4967165;28;20023;-58
2021/12/12 04:34:33;;;;;;;8.40;2.60;;;;;;;;;;4971741;28;20062;-58
2021/12/12 04:37:04;;;;;;;7.03;2.90;;;;;;;;;;4973140;28;20031;-58
2021/12/12 04:39:33;;;;;;;6.90;2.50;;;;;;;;;;4973324;28;20089;-58
2021/12/12 04:42:04;;;;;;;5.93;2.80;;;;;;;;;;4973228;28;20031;-58
2021/12/12 04:44:35;;;;;;;8.17;2.50;;;;;;;;;;4972986;28;20027;-57
2021/12/12 04:49:56;;;;;;;7.83;2.80;;;;;;;;;;4968172;28;20046;-58
2021/12/12 04:52:42;;;;;;;7.37;2.73;;;;;;;;;;4967653;28;20698;-59
2021/12/12 04:55:20;;;;;;;6.53;2.47;;;;;;;;;;4938361;29;20058;-58
2021/12/12 04:57:50;;;;;;;4.30;2.60;;;;;;;;;;4953924;29;20027;-58
2021/12/12 05:00:19;;;;;;;6.63;2.53;;;;;;;;;;4953796;29;20030;-58
2021/12/12 05:02:49;;;;;;;14.80;3.30;;;;;;;;;;4953474;29;20034;-58
2021/12/12 05:05:34;;;;;;;4.50;2.60;;;;;;;;;;4953793;29;20431;-58
2021/12/12 05:08:04;;;;;;;7.53;2.50;;;;;;;;;;4955295;28;20513;-57
2021/12/12 05:10:35;;;;;;;4.07;2.40;;;;;;;;;;4967548;28;20035;-58
2021/12/12 05:13:08;;;;;;;4.13;2.20;;;;;;;;;;4967254;28;20030;-58
2021/12/12 05:15:37;;;;;;;5.47;2.30;;;;;;;;;;4967514;28;20035;-58
2021/12/12 05:18:26;;;;;;;5.87;2.07;;;;;;;;;;4968804;28;20481;-58
2021/12/12 05:20:59;;;;;;;6.23;2.40;;;;;;;;;;4972802;28;20478;-59
2021/12/12 05:23:27;;;;;;;4.17;2.20;;;;;;;;;;4975851;28;20023;-58
2021/12/12 05:25:59;;;;;;;7.23;2.20;;;;;;;;;;4957182;29;20030;-58
2021/12/12 05:28:30;;;;;;;5.00;2.07;;;;;;;;;;4957159;29;20436;-58
2021/12/12 05:30:57;;;;;;;3.80;2.13;;;;;;;;;;4954421;29;20030;-58
2021/12/12 05:33:25;;;;;;;4.43;2.23;;;;;;;;;;4951800;29;20019;-58
2021/12/12 05:35:51;;;;;;;12.27;2.60;;;;;;;;;;4951314;29;20031;-58
2021/12/12 05:38:19;;;;;;;6.23;2.43;;;;;;;;;;4969170;28;20034;-58
2021/12/12 05:40:49;;;;;;;7.70;3.70;;;;;;;;;;4973036;28;20079;-58
2021/12/12 05:43:17;;;;;;;5.13;2.73;;;;;;;;;;4976361;28;20027;-58
2021/12/12 05:45:45;;;;;;;8.17;3.33;;;;;;;;;;4976274;28;20030;-57
2021/12/12 05:48:12;;;;;;;5.30;2.73;;;;;;;;;;4976129;28;20098;-58
2021/12/12 05:50:40;;;;;;;7.33;2.67;;;;;;;;;;4975441;28;20033;-57
2021/12/12 05:53:07;;;;;;;5.40;2.40;;;;;;;;;;4973168;28;20058;-57
2021/12/12 05:55:36;;;;;;;6.23;3.10;;;;;;;;;;4970338;28;20130;-58
2021/12/12 05:58:04;;;;;;;5.03;2.40;;;;;;;;;;4970581;28;20031;-58
2021/12/12 06:00:38;;;;;;;5.00;2.50;;;;;;;;;;4970588;28;20030;-58
2021/12/12 06:03:08;;;;;;;4.27;2.40;;;;;;;;;;4972751;28;20478;-58
2021/12/12 06:05:35;;;;;;;4.03;2.37;;;;;;;;;;4975520;28;20031;-58
2021/12/12 06:08:02;;;;;;;5.50;2.67;;;;;;;;;;4975528;28;20038;-57
2021/12/12 06:10:29;;;;;;;7.83;2.90;;;;;;;;;;4975834;28;20085;-57
2021/12/12 06:12:56;;;;;;;4.70;2.87;;;;;;;;;;4975602;28;20055;-57
2021/12/12 06:15:24;;;;;;;7.37;2.97;;;;;;;;;;4972869;28;20050;-57
2021/12/12 06:17:52;;;;;;;6.33;2.67;;;;;;;;;;4970361;28;20027;-57
2021/12/12 06:20:20;;;;;;;8.40;2.90;;;;;;;;;;4969792;28;20494;-57
2021/12/12 06:22:49;;;;;;;5.30;2.27;;;;;;;;;;4970200;28;20654;-58
2021/12/12 06:25:16;;;;;;;5.60;2.17;;;;;;;;;;4972160;28;20019;-57
2021/12/12 06:27:43;;;;;;;10.83;3.63;;;;;;;;;;4975198;28;20116;-58
2021/12/12 06:30:11;;;;;;;7.13;2.60;;;;;;;;;;4975324;28;20153;-57
2021/12/12 06:32:38;;;;;;;7.17;2.40;;;;;;;;;;4975470;28;20023;-57
2021/12/12 06:35:06;;;;;;;8.77;2.30;;;;;;;;;;4973907;28;20039;-57
2021/12/12 06:37:35;;;;;;;4.17;2.60;;;;;;;;;;4972963;28;20102;-58
2021/12/12 06:40:03;;;;;;;6.27;2.77;;;;;;;;;;4978429;28;20026;-57
2021/12/12 06:42:30;;;;;;;6.53;2.67;;;;;;;;;;4968860;28;20054;-58
2021/12/12 06:44:56;;;;;;;7.70;2.47;;;;;;;;;;4969837;28;20034;-57
2021/12/12 06:47:23;;;;;;;10.83;3.30;;;;;;;;;;4971186;28;20023;-57
2021/12/12 06:49:50;;;;;;;3.63;2.17;;;;;;;;;;4974726;28;20034;-57
2021/12/12 06:52:18;;;;;;;4.93;2.60;;;;;;;;;;4975039;28;20474;-57
2021/12/12 06:54:46;;;;;;;3.80;2.20;;;;;;;;;;4974861;28;20041;-58
2021/12/12 06:57:14;;;;;;;4.33;2.60;;;;;;;;;;4974738;28;20517;-57
2021/12/12 06:59:42;;;;;;;3.77;2.30;;;;;;;;;;4972853;28;20031;-57
2021/12/12 07:02:09;;;;;;;10.00;2.57;;;;;;;;;;4969488;28;20031;-57
2021/12/12 07:04:37;;;;;;;4.93;2.47;;;;;;;;;;4969014;28;20465;-57
2021/12/12 07:07:05;;;;;;;5.57;2.87;;;;;;;;;;4969296;28;20049;-57
2021/12/12 07:09:32;;;;;;;7.10;3.00;;;;;;;;;;4970574;28;20049;-57
2021/12/12 07:12:03;;;;;;;5.77;2.97;;;;;;;;;;4974420;28;20080;-57
2021/12/12 07:14:30;;;;;;;5.07;3.30;;;;;;;;;;4974392;28;20042;-57
2021/12/12 07:16:57;;;;;;;5.13;3.47;;;;;;;;;;4974578;28;20541;-57
2021/12/12 07:19:24;;;;;;;10.33;3.50;;;;;;;;;;4974231;28;20023;-58
2021/12/12 07:21:51;;;;;;;7.47;3.77;;;;;;;;;;4972666;28;20530;-57
2021/12/12 07:24:19;;;;;;;9.27;4.00;;;;;;;;;;4968866;28;20827;-57
2021/12/12 07:26:46;;;;;;;11.47;4.27;;;;;;;;;;4968582;28;20077;-57
2021/12/12 07:29:13;;;;;;;8.43;4.80;;;;;;;;;;4969114;28;20026;-57
2021/12/12 07:31:42;;;;;;;7.50;4.30;;;;;;;;;;4969626;28;20053;-57
2021/12/12 07:34:11;;;;;;;6.23;3.80;;;;;;;;;;4974144;28;20058;-57
2021/12/12 07:36:38;;;;;;;8.83;3.90;;;;;;;;;;4974380;28;20026;-57
2021/12/12 07:39:07;;;;;;;7.77;4.43;;;;;;;;;;4973963;28;20034;-57
2021/12/12 07:41:35;;;;;;;7.67;5.10;;;;;;;;;;4973406;28;20390;-57
2021/12/12 07:44:05;;;;;;;11.07;5.30;;;;;;;;;;4972552;28;20328;-57
2021/12/12 07:46:31;;;;;;;9.73;5.20;;;;;;;;;;4968406;28;20030;-57
2021/12/12 07:48:58;;;;;;;9.53;5.73;;;;;;;;;;4968302;28;20019;-58
2021/12/12 07:51:26;;;;;;;7.53;5.57;;;;;;;;;;4968633;28;20027;-57
2021/12/12 07:53:54;;;;;;;7.37;5.30;;;;;;;;;;4969099;28;20026;-57
2021/12/12 07:56:22;;;;;;;8.03;5.03;;;;;;;;;;4973316;28;20471;-57
2021/12/12 07:58:49;;;;;;;10.17;5.80;;;;;;;;;;4973825;28;20070;-57
2021/12/12 08:01:17;;;;;;;10.07;5.30;;;;;;;;;;4973949;28;20033;-57
2021/12/12 08:03:44;;;;;;;7.20;4.17;;;;;;;;;;4973541;28;20482;-57
2021/12/12 08:06:14;;;;;;;8.77;4.37;;;;;;;;;;4972705;28;20034;-58
2021/12/12 08:08:42;;;;;;;6.80;3.93;;;;;;;;;;4968399;28;20027;-57
2021/12/12 08:11:09;;;;;;;7.23;4.10;;;;;;;;;;4968008;28;20043;-57
2021/12/12 08:13:37;;;;;;;11.63;4.17;;;;;;;;;;4968153;28;20065;-57
2021/12/12 08:16:09;;;;;;;12.97;4.43;;;;;;;;;;4968535;28;20039;-57
2021/12/12 08:18:36;;;;;;;7.70;4.87;;;;;;;;;;4973220;28;20038;-57
2021/12/12 08:21:03;;;;;;;8.33;4.07;;;;;;;;;;4973617;28;20026;-57
2021/12/12 08:23:30;;;;;;;8.07;5.07;;;;;;;;;;4973446;28;20023;-57
2021/12/12 08:25:57;;;;;;;10.63;5.13;;;;;;;;;;4973480;28;20050;-57
2021/12/12 08:28:24;;;;;;;11.40;5.90;;;;;;;;;;4972294;28;20362;-58
2021/12/12 08:30:51;;;;;;;13.50;5.90;;;;;;;;;;4967424;28;20042;-58
2021/12/12 08:33:18;;;;;;;11.40;6.10;;;;;;;;;;4967883;28;20019;-57
2021/12/12 08:35:46;;;;;;;9.27;5.67;;;;;;;;;;4968010;28;20027;-57
2021/12/12 08:38:14;;;;;;;9.17;5.57;;;;;;;;;;4968258;28;20026;-57
2021/12/12 08:40:43;;;;;;;8.23;5.10;;;;;;;;;;4973389;28;20027;-57
2021/12/12 08:43:13;;;;;;;8.83;5.30;;;;;;;;;;4973203;28;20576;-57
2021/12/12 08:45:43;;;;;;;9.93;5.67;;;;;;;;;;4973260;28;20029;-57
2021/12/12 08:48:10;;;;;;;9.30;5.17;;;;;;;;;;4972849;28;20030;-57
2021/12/12 08:50:38;;;;;;;10.23;6.10;;;;;;;;;;4972451;28;20051;-57
2021/12/12 08:53:06;;;;;;;9.43;5.97;;;;;;;;;;4967901;28;20023;-58
2021/12/12 08:55:36;;;;;;;11.13;6.10;;;;;;;;;;4967914;28;20183;-57
2021/12/12 08:58:14;;;;;;;10.13;5.17;;;;;;;;;;4970319;28;20054;-57
2021/12/12 09:00:50;;;;;;;9.13;4.93;;;;;;;;;;4952700;29;20039;-57
2021/12/12 09:03:20;;;;;;;9.63;5.87;;;;;;;;;;4957554;28;20032;-57
2021/12/12 09:05:47;;;;;;;10.23;5.63;;;;;;;;;;4957495;28;20038;-57
2021/12/12 09:08:22;;;;;;;10.13;5.50;;;;;;;;;;4957601;28;20027;-57
2021/12/12 09:10:49;;;;;;;;;;;;;;;;;;4957753;28;20027;-57
2021/12/12 09:13:24;;;;;;;6.07;3.83;;;;;;;;;;4955782;28;20409;-57
2021/12/12 09:15:55;;;;;;;7.00;3.80;;;;;;;;;;4964169;28;20035;-57
2021/12/12 09:18:26;;;;;;;6.90;4.40;;;;;;;;;;4971217;28;20065;-57
2021/12/12 09:21:09;;;;;;;12.13;4.30;;;;;;;;;;4971151;28;20030;-57
2021/12/12 09:23:41;;;;;;;10.13;4.77;;;;;;;;;;4973410;28;20022;-57
2021/12/12 09:26:19;;;;;;;7.83;4.77;;;;;;;;;;4976625;28;20097;-57
2021/12/12 09:28:45;;;;;;;12.00;4.70;;;;;;;;;;4976335;28;20121;-58
2021/12/12 09:31:15;;;;;;;7.07;3.43;;;;;;;;;;4976176;28;20039;-57
2021/12/12 09:33:48;;;;;;;8.30;3.77;;;;;;;;;;4976331;28;20026;-57
2021/12/12 09:36:17;;;;;;;7.30;4.67;;;;;;;;;;4972745;28;20066;-57
2021/12/12 09:38:47;;;;;;;8.53;4.37;;;;;;;;;;4970985;28;20030;-57
2021/12/12 09:41:42;;;;;;;11.43;4.77;;;;;;;;;;4970882;28;20022;-57
2021/12/12 09:44:08;;;;;;;6.28;4.10;;;;;;;;;;4970777;28;20061;-57
2021/12/12 09:46:44;;;;;;;10.67;6.90;;;;;;;;;;4974229;28;20077;-57
2021/12/12 09:52:33;;;;;;;10.00;5.43;;;;;;;;;;4976328;28;20065;-57
2021/12/12 09:55:09;;;;;;;10.17;6.03;;;;;;;;;;4975783;28;20521;-57
2021/12/12 09:57:44;;;;;;;10.27;5.33;;;;;;;;;;4974556;28;20023;-57
2021/12/12 10:00:33;;;;;;;8.23;5.18;;;;;;;;;;4970590;28;20489;-57
2021/12/12 10:03:19;;;;;;;8.83;5.93;;;;;;;;;;4970252;28;20593;-57
2021/12/12 10:06:07;;;;;;;8.07;5.23;;;;;;;;;;4957248;28;20051;-57
2021/12/12 10:08:42;;;;;;;12.33;5.60;;;;;;;;;;4972563;28;20043;-57
2021/12/12 10:11:27;;;;;;;12.33;5.80;;;;;;;;;;4975255;28;20047;-57
2021/12/12 10:14:05;;;;;;;8.73;4.43;;;;;;;;;;4956308;29;20027;-57
2021/12/12 10:16:46;;;;;;;8.50;5.57;;;;;;;;;;4956513;29;20359;-57
2021/12/12 10:19:21;;;;;;;9.37;4.90;;;;;;;;;;4956291;29;20020;-57
2021/12/12 10:22:00;;;;;;;8.13;5.70;;;;;;;;;;4950949;29;20050;-57
2021/12/12 10:24:31;;;;;;;9.67;4.83;;;;;;;;;;4951038;29;20097;-57
2021/12/12 10:27:18;;;;;;;7.60;5.00;;;;;;;;;;4965297;28;20054;-58
2021/12/12 10:30:03;;;;;;;10.50;5.20;;;;;;;;;;4971003;28;20054;-57
2021/12/12 10:32:32;;;;;;;11.32;4.93;;;;;;;;;;4975473;28;20252;-57
2021/12/12 10:35:04;;;;;;;8.87;5.37;;;;;;;;;;4974876;28;20034;-57
2021/12/12 10:37:36;;;;;;;10.47;5.10;;;;;;;;;;4975477;28;20272;-57
2021/12/12 10:40:10;;;;;;;8.03;4.57;;;;;;;;;;4975461;28;20344;-56
2021/12/12 10:42:45;;;;;;;8.07;4.90;;;;;;;;;;4972589;28;20374;-57
2021/12/12 10:45:33;;;;;;;11.13;5.80;;;;;;;;;;4969337;28;20786;-57
2021/12/12 10:48:06;;;;;;;10.53;5.13;;;;;;;;;;4969667;28;20265;-57
2021/12/12 10:50:33;;;;;;;17.20;10.10;;;;;;;;;;4969734;28;20260;-57
2021/12/12 10:53:03;;;;;;;15.10;8.30;;;;;;;;;;4972570;28;20260;-56
2021/12/12 10:55:41;;;;;;;18.90;8.27;;;;;;;;;;4974765;28;20371;-57
2021/12/12 10:58:09;;;;;;;15.50;8.93;;;;;;;;;;4974712;28;20351;-57
2021/12/12 11:00:38;;;;;;;18.03;8.87;;;;;;;;;;4974915;28;20768;-57
2021/12/12 11:03:04;;;;;;;26.57;11.40;;;;;;;;;;4974660;28;20260;-57
2021/12/12 11:05:39;;;;;;;22.33;11.23;;;;;;;;;;4970687;28;20604;-57
2021/12/12 11:08:10;;;;;;;16.48;9.18;;;;;;;;;;4969445;28;20257;-57
2021/12/12 11:10:39;;;;;;;53.97;27.57;;;;;;;;;;4969319;28;20049;-57
2021/12/12 11:13:10;;;;;;;35.77;18.87;;;;;;;;;;4968790;28;20291;-57
2021/12/12 11:15:42;;;;;;;13.23;8.03;;;;;;;;;;4973165;28;20371;-56
2021/12/12 11:18:10;;;;;;;19.03;8.97;;;;;;;;;;4974085;28;20344;-56
2021/12/12 11:20:40;;;;;;;12.60;7.73;;;;;;;;;;4974120;28;20736;-56
2021/12/12 11:23:26;;;;;;;14.07;7.37;;;;;;;;;;4974440;28;20729;-57
2021/12/12 11:25:56;;;;;;;16.83;9.53;;;;;;;;;;4974600;28;20253;-57
2021/12/12 11:28:25;;;;;;;36.50;18.90;;;;;;;;;;4967723;28;20346;-57
2021/12/12 11:30:55;;;;;;;28.03;15.03;;;;;;;;;;4968713;28;20276;-57
2021/12/12 11:33:23;;;;;;;26.03;15.27;;;;;;;;;;4968809;28;20276;-57
2021/12/12 11:35:54;;;;;;;54.87;26.70;;;;;;;;;;4968733;28;20754;-57
2021/12/12 11:38:23;;;;;;;40.03;22.37;;;;;;;;;;4973817;28;20763;-56
2021/12/12 11:41:09;;;;;;;26.80;15.23;;;;;;;;;;4973776;28;20329;-57
2021/12/12 11:43:43;;;;;;;28.60;14.70;;;;;;;;;;4973801;28;20827;-56
2021/12/12 11:46:13;;;;;;;29.52;16.13;;;;;;;;;;4974184;28;20058;-56
2021/12/12 11:48:52;;;;;;;27.10;13.83;;;;;;;;;;4972964;28;20378;-56
2021/12/12 11:51:39;;;;;;;23.70;12.07;;;;;;;;;;4968500;28;20299;-57
2021/12/12 11:54:11;;;;;;;25.93;13.60;;;;;;;;;;4968016;28;20285;-56
2021/12/12 11:56:45;;;;;;;24.43;12.10;;;;;;;;;;4968491;28;20298;-57
2021/12/12 11:59:17;;;;;;;26.63;13.38;;;;;;;;;;4970277;28;20360;-56
2021/12/12 12:01:44;;;;;;;24.57;13.10;;;;;;;;;;4973817;28;20506;-57
2021/12/12 12:04:29;;;;;;;78.13;15.87;;;;;;;;;;4973736;28;20312;-56
2021/12/12 12:07:02;;;;;;;13.82;7.60;;;;;;;;;;4973338;28;20241;-56
2021/12/12 12:09:51;;;;;;;19.13;11.67;;;;;;;;;;4973772;28;20054;-57
2021/12/12 12:12:30;;;;;;;14.10;8.97;;;;;;;;;;4969393;28;20273;-56
2021/12/12 12:15:07;;;;;;;16.13;9.20;;;;;;;;;;4967424;28;20636;-57
2021/12/12 12:17:51;;;;;;;15.87;9.97;;;;;;;;;;4968305;28;20652;-56
2021/12/12 12:20:36;;;;;;;16.13;9.38;;;;;;;;;;4968170;28;20655;-57
2021/12/12 12:23:20;;;;;;;12.38;7.75;;;;;;;;;;4973516;28;20122;-57
2021/12/12 12:28:44;;;;;;;15.77;8.30;;;;;;;;;;4973516;28;20771;-57
2021/12/12 12:31:29;;;;;;;16.40;10.30;;;;;;;;;;4972870;28;20405;-56
2021/12/12 12:34:14;;;;;;;14.45;8.13;;;;;;;;;;4970643;28;20261;-57
2021/12/12 12:36:59;;;;;;;12.95;8.32;;;;;;;;;;4968175;28;20784;-56
2021/12/12 12:39:26;;;;;;;13.05;8.02;;;;;;;;;;4967841;28;20058;-56
2021/12/12 12:42:02;;;;;;;15.17;7.47;;;;;;;;;;4967920;28;20055;-57
2021/12/12 12:44:47;;;;;;;14.57;6.97;;;;;;;;;;4971573;28;20267;-56
2021/12/12 12:47:14;;;;;;;16.23;7.75;;;;;;;;;;4973006;28;20319;-57
2021/12/12 12:49:59;;;;;;;19.63;8.00;;;;;;;;;;4972953;28;20038;-57
2021/12/12 12:52:44;;;;;;;12.90;8.95;;;;;;;;;;4973385;28;20736;-57
2021/12/12 12:55:29;;;;;;;12.75;7.45;;;;;;;;;;4972554;28;20062;-57
2021/12/12 12:58:19;;;;;;;12.73;7.93;;;;;;;;;;4967444;28;20470;-56
2021/12/12 13:00:47;;;;;;;11.87;6.97;;;;;;;;;;4960110;28;20260;-56
2021/12/12 13:03:36;;;;;;;15.93;9.53;;;;;;;;;;4967606;28;20315;-57
2021/12/12 13:06:09;;;;;;;16.30;10.60;;;;;;;;;;4950934;29;20266;-57
2021/12/12 13:08:51;;;;;;;15.33;9.07;;;;;;;;;;4969989;28;20307;-56
2021/12/12 13:11:19;;;;;;;19.97;9.60;;;;;;;;;;4973047;28;20245;-56
2021/12/12 13:13:49;;;;;;;22.43;10.43;;;;;;;;;;4972819;28;20948;-56
2021/12/12 13:16:19;;;;;;;15.17;8.27;;;;;;;;;;4972980;28;20368;-56
2021/12/12 13:18:46;;;;;;;13.93;9.00;;;;;;;;;;4969200;28;20582;-56
2021/12/12 13:21:19;;;;;;;18.50;9.53;;;;;;;;;;4967380;28;20268;-56
2021/12/12 13:23:53;;;;;;;13.67;7.07;;;;;;;;;;4967443;28;20267;-56
2021/12/12 13:26:45;;;;;;;17.23;10.17;;;;;;;;;;4967443;28;20268;-56
2021/12/12 13:29:25;;;;;;;14.90;8.97;;;;;;;;;;4971931;28;20265;-57
2021/12/12 13:31:59;;;;;;;14.77;9.33;;;;;;;;;;4972957;28;20306;-57
2021/12/12 13:34:32;;;;;;;18.43;10.63;;;;;;;;;;4972794;28;20281;-56
2021/12/12 13:37:06;;;;;;;20.00;11.67;;;;;;;;;;4972401;28;20296;-57
2021/12/12 13:39:45;;;;;;;19.67;12.43;;;;;;;;;;4972143;28;20315;-57
2021/12/12 13:42:38;;;;;;;19.90;11.30;;;;;;;;;;4967413;28;20284;-56
2021/12/12 13:45:28;;;;;;;19.20;11.67;;;;;;;;;;4948153;28;20276;-57
2021/12/12 13:48:01;;;;;;;21.47;14.63;;;;;;;;;;4970640;28;20656;-57
2021/12/12 13:50:34;;;;;;;26.00;15.20;;;;;;;;;;4972704;28;20755;-57
2021/12/12 13:53:12;;;;;;;27.73;15.47;;;;;;;;;;4976029;28;20253;-57
2021/12/12 13:55:57;;;;;;;21.23;13.63;;;;;;;;;;4976101;28;20292;-57
2021/12/12 13:58:23;;;;;;;22.58;14.23;;;;;;;;;;4976178;28;20375;-57
2021/12/12 14:01:19;;;;;;;17.37;13.00;;;;;;;;;;4976154;28;20095;-57
2021/12/12 14:03:45;;;;;;;;;;;;;;;;;;4954626;28;20031;-58
2021/12/12 14:06:14;;;;;;;15.93;10.20;;;;;;;;;;4970261;28;20384;-57
2021/12/12 14:08:48;;;;;;;16.57;10.77;;;;;;;;;;4970192;28;20065;-57
2021/12/12 14:11:26;;;;;;;15.83;10.33;;;;;;;;;;4950940;29;20034;-57
2021/12/12 14:13:54;;;;;;;21.80;12.10;;;;;;;;;;4955775;29;20034;-57
2021/12/12 14:16:24;;;;;;;17.13;11.70;;;;;;;;;;4956194;29;20035;-57
2021/12/12 14:18:53;;;;;;;16.77;11.40;;;;;;;;;;4956293;29;20016;-57
2021/12/12 14:21:22;;;;;;;15.77;11.53;;;;;;;;;;4956345;29;20426;-57
2021/12/12 14:23:50;;;;;;;14.00;10.43;;;;;;;;;;4967573;28;20031;-57
2021/12/12 14:26:18;;;;;;;19.90;10.63;;;;;;;;;;4970152;28;20026;-57
2021/12/12 14:28:49;;;;;;;14.57;10.63;;;;;;;;;;4970085;28;20027;-57
2021/12/12 14:31:17;;;;;;;15.33;9.33;;;;;;;;;;4970132;28;20027;-57
2021/12/12 14:33:47;;;;;;;12.10;9.00;;;;;;;;;;4969953;28;20023;-57
2021/12/12 14:36:17;;;;;;;13.90;10.60;;;;;;;;;;4975266;28;20038;-58
2021/12/12 14:38:45;;;;;;;16.33;10.87;;;;;;;;;;4974645;28;20032;-58
2021/12/12 14:41:12;;;;;;;13.63;9.53;;;;;;;;;;4975152;28;20105;-57
2021/12/12 14:43:54;;;;;;;15.80;10.03;;;;;;;;;;4974603;28;20042;-57
2021/12/12 14:46:22;;;;;;;14.60;10.50;;;;;;;;;;4974149;28;20023;-57
2021/12/12 14:48:56;;;;;;;15.13;10.47;;;;;;;;;;4969737;28;20030;-58
2021/12/12 14:51:28;;;;;;;15.77;11.75;;;;;;;;;;4969860;28;20015;-58
2021/12/12 14:54:01;;;;;;;13.17;10.37;;;;;;;;;;4968336;28;20127;-57
2021/12/12 14:56:35;;;;;;;12.90;9.43;;;;;;;;;;4969886;28;20042;-57
2021/12/12 14:59:04;;;;;;;13.82;8.88;;;;;;;;;;4975118;28;20109;-57
2021/12/12 15:01:36;;;;;;;16.07;11.13;;;;;;;;;;4974782;28;20034;-57
2021/12/12 15:04:18;;;;;;;13.03;9.77;;;;;;;;;;4974028;28;20054;-57
2021/12/12 15:06:50;;;;;;;12.87;9.00;;;;;;;;;;4974701;28;20030;-57
2021/12/12 15:09:18;;;;;;;13.83;8.70;;;;;;;;;;4971661;28;20029;-57
2021/12/12 15:11:52;;;;;;;11.97;8.57;;;;;;;;;;4969406;28;20385;-57
2021/12/12 15:14:20;;;;;;;14.25;9.30;;;;;;;;;;4968767;28;20039;-57
2021/12/12 15:16:48;;;;;;;16.23;9.97;;;;;;;;;;4969133;28;20037;-57
2021/12/12 15:19:19;;;;;;;14.20;9.47;;;;;;;;;;4971434;28;20018;-57
2021/12/12 15:21:48;;;;;;;12.20;9.27;;;;;;;;;;4974473;28;20085;-57
2021/12/12 15:24:17;;;;;;;16.00;9.10;;;;;;;;;;4974074;28;20055;-58